createdAt,value
2018-12-14T00:01:01.098Z,44.60
2018-12-14T00:03:29.151Z,45.15
2018-12-14T00:05:57.222Z,47.98
2018-12-14T00:08:25.374Z,49.00
2018-12-14T00:10:53.467Z,46.65
2018-12-14T00:13:21.548Z,46.65
2018-12-14T00:15:49.714Z,41.58
2018-12-14T00:18:17.862Z,42.90
2018-12-14T00:20:46.031Z,44.53
2018-12-14T00:23:14.083Z,46.50
2018-12-14T00:25:42.167Z,49.27
2018-12-14T00:28:10.244Z,46.75
2018-12-14T00:30:38.323Z,45.17
2018-12-14T00:33:06.394Z,46.55
2018-12-14T00:35:34.606Z,40.88
2018-12-14T00:38:02.664Z,42.55
2018-12-14T00:40:30.842Z,44.18
2018-12-14T00:42:58.916Z,47.35
2018-12-14T00:45:27.066Z,46.68
2018-12-14T00:47:55.118Z,48.85
2018-12-14T00:50:23.263Z,47.58
2018-12-14T00:52:51.302Z,46.58
2018-12-14T00:55:19.261Z,43.05
2018-12-14T00:57:47.298Z,45.38
2018-12-14T01:00:15.362Z,47.98
2018-12-14T01:02:43.355Z,45.43
2018-12-14T01:05:11.547Z,47.90
2018-12-14T01:07:39.586Z,45.38
2018-12-14T01:10:07.783Z,44.18
2018-12-14T01:12:35.826Z,46.45
2018-12-14T01:15:03.919Z,48.28
2018-12-14T01:17:32.053Z,46.33
2018-12-14T01:20:00.195Z,42.60
2018-12-14T01:22:28.252Z,39.38
2018-12-14T01:24:56.314Z,42.93
2018-12-14T01:27:24.376Z,44.80
2018-12-14T01:29:52.567Z,44.45
2018-12-14T01:32:20.622Z,42.95
2018-12-14T01:34:48.709Z,46.02
2018-12-14T01:37:16.851Z,38.35
2018-12-14T01:39:44.950Z,45.52
2018-12-14T01:42:13.012Z,43.95
2018-12-14T01:44:41.114Z,42.55
2018-12-14T01:47:09.217Z,47.50
2018-12-14T01:49:37.391Z,43.85
2018-12-14T01:52:05.554Z,39.20
2018-12-14T01:54:33.710Z,44.48
2018-12-14T01:57:01.770Z,39.27
2018-12-14T01:59:29.854Z,39.38
2018-12-14T02:01:57.988Z,42.85
2018-12-14T02:04:26.067Z,41.68
2018-12-14T02:06:54.155Z,38.83
2018-12-14T02:09:22.368Z,39.18
2018-12-14T02:11:50.401Z,42.38
2018-12-14T02:14:18.490Z,46.35
2018-12-14T02:16:46.530Z,36.85
2018-12-14T02:19:14.634Z,40.43
2018-12-14T02:21:42.744Z,44.55
2018-12-14T02:24:10.848Z,35.88
2018-12-14T02:26:38.934Z,43.28
2018-12-14T02:29:07.136Z,39.67
2018-12-14T02:31:35.259Z,39.63
2018-12-14T02:34:03.290Z,45.90
2018-12-14T02:36:31.328Z,42.30
2018-12-14T02:38:59.487Z,43.10
2018-12-14T02:41:27.646Z,42.65
2018-12-14T02:43:55.713Z,39.98
2018-12-14T02:46:23.821Z,42.15
2018-12-14T02:48:51.985Z,40.83
2018-12-14T02:51:20.084Z,43.75
2018-12-14T02:53:48.159Z,43.17
2018-12-14T02:56:16.314Z,47.15
2018-12-14T02:58:44.427Z,43.17
2018-12-14T03:01:12.602Z,48.17
2018-12-14T03:03:40.855Z,42.30
2018-12-14T03:06:08.923Z,49.27
2018-12-14T03:08:37.064Z,46.23
2018-12-14T03:11:05.168Z,45.58
2018-12-14T03:13:33.209Z,45.90
2018-12-14T03:16:02.087Z,46.15
2018-12-14T03:18:30.270Z,46.33
2018-12-14T03:20:58.346Z,49.48
2018-12-14T03:23:26.418Z,47.83
2018-12-14T03:25:54.744Z,48.48
2018-12-14T03:28:22.874Z,47.85
2018-12-14T03:30:51.000Z,54.05
2018-12-14T03:33:19.152Z,51.77
2018-12-14T03:35:47.202Z,49.90
2018-12-14T03:38:15.260Z,53.75
2018-12-14T03:40:43.446Z,52.35
2018-12-14T03:43:11.506Z,50.28
2018-12-14T03:45:39.562Z,48.50
2018-12-14T03:48:07.598Z,51.48
2018-12-14T03:50:35.794Z,50.17
2018-12-14T03:53:03.897Z,45.45
2018-12-14T03:55:32.059Z,47.75
2018-12-14T03:58:00.470Z,48.10
2018-12-14T04:00:28.975Z,52.55
2018-12-14T04:02:57.338Z,46.65
2018-12-14T04:05:25.723Z,44.80
2018-12-14T04:07:53.897Z,50.23
2018-12-14T04:10:21.967Z,46.70
2018-12-14T04:12:50.149Z,50.55
2018-12-14T04:15:18.322Z,40.40
2018-12-14T04:17:46.446Z,49.85
2018-12-14T04:20:14.529Z,44.88
2018-12-14T04:22:42.787Z,44.30
2018-12-14T04:25:10.882Z,47.70
2018-12-14T04:27:38.987Z,44.77
2018-12-14T04:30:07.474Z,43.90
2018-12-14T04:32:35.505Z,47.38
2018-12-14T04:35:03.659Z,44.67
2018-12-14T04:37:31.767Z,46.92
2018-12-14T04:39:59.839Z,42.88
2018-12-14T04:42:28.082Z,49.95
2018-12-14T04:44:56.174Z,45.83
2018-12-14T04:47:24.251Z,46.10
2018-12-14T04:49:52.446Z,48.45
2018-12-14T04:52:20.525Z,44.30
2018-12-14T04:54:48.650Z,44.10
2018-12-14T04:57:16.723Z,48.42
2018-12-14T04:59:44.864Z,45.48
2018-12-14T05:02:12.969Z,47.30
2018-12-14T05:04:41.113Z,41.33
2018-12-14T05:07:09.216Z,47.73
2018-12-14T05:09:37.264Z,44.50
2018-12-14T05:12:05.358Z,48.28
2018-12-14T05:14:34.298Z,43.98
2018-12-14T05:17:02.447Z,47.55
2018-12-14T05:19:30.522Z,47.38
2018-12-14T05:21:58.998Z,43.90
2018-12-14T05:24:27.134Z,45.12
2018-12-14T05:26:56.084Z,37.65
2018-12-14T05:29:24.414Z,46.83
2018-12-14T05:31:52.494Z,44.20
2018-12-14T05:34:20.567Z,43.98
2018-12-14T05:36:48.638Z,43.58
2018-12-14T05:39:16.699Z,45.23
2018-12-14T05:41:44.778Z,46.30
2018-12-14T05:44:12.858Z,47.35
2018-12-14T05:46:40.943Z,63.50
2018-12-14T05:49:09.096Z,41.88
2018-12-14T05:51:37.731Z,43.35
2018-12-14T05:54:05.798Z,40.63
2018-12-14T05:56:34.054Z,47.15
2018-12-14T05:59:02.135Z,46.05
2018-12-14T06:01:30.194Z,39.58
2018-12-14T06:03:58.518Z,41.05
2018-12-14T06:06:26.652Z,41.77
2018-12-14T06:08:54.720Z,38.73
2018-12-14T06:11:22.813Z,40.33
2018-12-14T06:13:50.968Z,35.25
2018-12-14T06:16:19.041Z,39.80
2018-12-14T06:18:47.328Z,38.28
2018-12-14T06:21:15.395Z,40.73
2018-12-14T06:23:43.876Z,36.20
2018-12-14T06:26:11.939Z,32.93
2018-12-14T06:28:40.001Z,38.05
2018-12-14T06:31:08.058Z,38.42
2018-12-14T06:33:36.055Z,40.75
2018-12-14T06:36:04.123Z,34.80
2018-12-14T06:38:32.274Z,42.48
2018-12-14T06:41:00.495Z,32.10
2018-12-14T06:43:28.546Z,34.63
2018-12-14T06:45:56.658Z,36.40
2018-12-14T06:48:24.783Z,35.00
2018-12-14T06:50:53.321Z,38.25
2018-12-14T06:53:21.603Z,37.75
2018-12-14T06:55:49.691Z,42.13
2018-12-14T06:58:17.915Z,38.28
2018-12-14T07:00:45.941Z,31.77
2018-12-14T07:03:15.022Z,34.48
2018-12-14T07:05:43.336Z,33.98
2018-12-14T07:08:11.459Z,46.53
2018-12-14T07:10:39.553Z,38.25
2018-12-14T07:13:07.683Z,40.78
2018-12-14T07:15:36.002Z,34.88
2018-12-14T07:18:04.127Z,40.52
2018-12-14T07:20:32.414Z,33.25
2018-12-14T07:23:00.531Z,32.38
2018-12-14T07:25:28.527Z,38.85
2018-12-14T07:27:56.627Z,33.00
2018-12-14T07:30:24.702Z,40.00
2018-12-14T07:32:52.767Z,35.55
2018-12-14T07:35:20.926Z,41.05
2018-12-14T07:37:49.111Z,43.25
2018-12-14T07:40:17.271Z,35.20
2018-12-14T07:42:45.617Z,35.05
2018-12-14T07:45:13.868Z,37.05
2018-12-14T07:47:42.001Z,35.00
2018-12-14T07:50:10.146Z,39.15
2018-12-14T07:52:38.232Z,38.53
2018-12-14T07:55:06.307Z,32.75
2018-12-14T07:57:34.476Z,37.60
2018-12-14T08:00:02.548Z,35.85
2018-12-14T08:02:31.974Z,34.48
2018-12-14T08:05:00.235Z,43.00
2018-12-14T08:07:28.392Z,35.45
2018-12-14T08:09:56.480Z,38.50
2018-12-14T08:12:24.534Z,39.03
2018-12-14T08:14:52.638Z,40.92
2018-12-14T08:17:20.698Z,33.35
2018-12-14T08:19:48.762Z,35.95
2018-12-14T08:22:16.849Z,31.33
2018-12-14T08:24:44.996Z,33.40
2018-12-14T08:27:13.070Z,34.75
2018-12-14T08:29:41.182Z,38.55
2018-12-14T08:32:09.349Z,41.85
2018-12-14T08:34:37.515Z,40.00
2018-12-14T08:37:05.602Z,48.68
2018-12-14T08:39:33.736Z,35.60
2018-12-14T08:42:01.760Z,40.33
2018-12-14T08:44:29.930Z,46.15
2018-12-14T08:46:58.030Z,35.13
2018-12-14T08:49:26.128Z,38.90
2018-12-14T08:51:54.306Z,35.58
2018-12-14T08:54:22.338Z,41.10
2018-12-14T08:56:50.391Z,37.85
2018-12-14T08:59:18.492Z,36.55
2018-12-14T09:01:46.586Z,46.53
2018-12-14T09:04:15.011Z,36.93
2018-12-14T09:06:43.112Z,38.88
2018-12-14T09:09:11.216Z,42.43
2018-12-14T09:11:39.227Z,40.90
2018-12-14T09:14:07.378Z,47.25
2018-12-14T09:16:35.503Z,46.98
2018-12-14T09:19:03.546Z,39.65
2018-12-14T09:21:31.619Z,40.45
2018-12-14T09:23:59.659Z,38.48
2018-12-14T09:26:27.715Z,42.58
2018-12-14T09:28:55.837Z,47.48
2018-12-14T09:31:24.261Z,38.63
2018-12-14T09:33:52.321Z,43.33
2018-12-14T09:36:20.478Z,38.67
2018-12-14T09:38:48.591Z,39.33
2018-12-14T09:41:16.715Z,43.55
2018-12-14T09:43:44.850Z,39.38
2018-12-14T09:46:12.902Z,39.98
2018-12-14T09:48:40.943Z,38.65
2018-12-14T09:51:12.281Z,44.18
2018-12-14T09:53:39.083Z,41.65
2018-12-14T09:56:07.179Z,34.30
2018-12-14T09:58:35.283Z,35.10
2018-12-14T10:01:03.383Z,36.38
2018-12-14T10:03:31.559Z,41.28
2018-12-14T10:05:59.670Z,67.82
2018-12-14T10:08:27.833Z,42.03
2018-12-14T10:10:56.110Z,44.25
2018-12-14T10:13:24.434Z,38.48
2018-12-14T10:15:53.599Z,39.65
2018-12-14T10:18:21.682Z,36.45
2018-12-14T10:20:49.765Z,42.03
2018-12-14T10:23:17.829Z,37.65
2018-12-14T10:25:45.990Z,46.10
2018-12-14T10:28:14.153Z,43.00
2018-12-14T10:30:42.210Z,38.00
2018-12-14T10:33:10.255Z,34.18
2018-12-14T10:35:38.334Z,40.00
2018-12-14T10:38:06.395Z,32.35
2018-12-14T10:40:34.844Z,34.43
2018-12-14T10:43:02.852Z,30.77
2018-12-14T10:45:31.428Z,34.20
2018-12-14T10:47:59.467Z,31.60
2018-12-14T10:50:27.528Z,40.30
2018-12-14T10:52:55.606Z,35.83
2018-12-14T10:55:23.644Z,41.40
2018-12-14T10:57:51.843Z,32.25
2018-12-14T11:00:25.397Z,32.75
2018-12-14T11:02:53.443Z,32.63
2018-12-14T11:05:21.502Z,33.00
2018-12-14T11:07:49.547Z,36.10
2018-12-14T11:10:17.614Z,35.50
2018-12-14T11:12:45.662Z,39.70
2018-12-14T11:15:13.872Z,43.00
2018-12-14T11:17:42.006Z,36.77
2018-12-14T11:20:10.530Z,35.95
2018-12-14T11:22:38.658Z,45.30
2018-12-14T11:25:07.754Z,37.63
2018-12-14T11:27:35.909Z,37.73
2018-12-14T11:30:04.300Z,36.48
2018-12-14T11:32:32.426Z,40.50
2018-12-14T11:35:00.442Z,48.08
2018-12-14T11:37:28.483Z,36.90
2018-12-14T11:39:56.525Z,36.55
2018-12-14T11:42:24.729Z,39.13
2018-12-14T11:44:52.754Z,36.93
2018-12-14T11:47:20.805Z,34.10
2018-12-14T11:49:48.812Z,35.95
2018-12-14T11:52:16.958Z,36.98
2018-12-14T11:54:45.130Z,36.58
2018-12-14T11:57:13.205Z,34.60
2018-12-14T11:59:41.283Z,43.25
2018-12-14T12:02:09.348Z,34.40
2018-12-14T12:04:37.407Z,34.73
2018-12-14T12:07:05.447Z,33.70
2018-12-14T12:09:33.532Z,38.35
2018-12-14T12:12:01.685Z,39.03
2018-12-14T12:14:29.804Z,45.67
2018-12-14T12:16:57.946Z,35.23
2018-12-14T12:19:26.080Z,32.75
2018-12-14T12:21:54.232Z,34.70
2018-12-14T12:24:22.274Z,44.95
2018-12-14T12:26:50.247Z,37.70
2018-12-14T12:29:18.255Z,39.95
2018-12-14T12:31:46.310Z,40.08
2018-12-14T12:34:14.403Z,40.50
2018-12-14T12:36:42.477Z,36.48
2018-12-14T12:39:10.543Z,36.90
2018-12-14T12:41:38.607Z,41.45
2018-12-14T12:44:06.629Z,36.15
2018-12-14T12:46:34.764Z,33.40
2018-12-14T12:49:02.940Z,39.45
2018-12-14T12:51:31.034Z,35.52
2018-12-14T12:53:59.066Z,35.60
2018-12-14T12:56:27.308Z,35.98
2018-12-14T12:58:55.367Z,34.43
2018-12-14T13:01:23.592Z,37.00
2018-12-14T13:03:51.558Z,37.25
2018-12-14T13:06:19.634Z,38.83
2018-12-14T13:08:47.696Z,38.53
2018-12-14T13:11:15.796Z,53.10
2018-12-14T13:13:43.865Z,45.50
2018-12-14T13:16:11.934Z,37.00
2018-12-14T13:18:40.005Z,41.90
2018-12-14T13:21:08.175Z,44.85
2018-12-14T13:23:36.507Z,42.53
2018-12-14T13:26:04.657Z,43.65
2018-12-14T13:28:32.839Z,38.65
2018-12-14T13:31:00.886Z,44.00
2018-12-14T13:33:28.955Z,32.45
2018-12-14T13:35:57.092Z,40.23
2018-12-14T13:38:25.225Z,34.18
2018-12-14T13:40:53.318Z,39.48
2018-12-14T13:43:21.431Z,36.93
2018-12-14T13:45:49.547Z,37.17
2018-12-14T13:48:17.602Z,37.03
2018-12-14T13:50:45.728Z,32.88
2018-12-14T13:53:13.888Z,35.52
2018-12-14T13:55:41.916Z,37.75
2018-12-14T13:58:09.994Z,40.10
2018-12-14T14:00:38.326Z,33.70
2018-12-14T14:03:06.411Z,34.75
2018-12-14T14:05:34.470Z,40.28
2018-12-14T14:08:02.566Z,41.45
2018-12-14T14:10:30.623Z,39.60
2018-12-14T14:12:58.764Z,42.62
2018-12-14T14:15:27.679Z,41.23
2018-12-14T14:17:55.899Z,38.63
2018-12-14T14:20:24.006Z,39.55
2018-12-14T14:22:52.102Z,42.03
2018-12-14T14:25:20.154Z,41.73
2018-12-14T14:27:48.265Z,46.02
2018-12-14T14:30:16.370Z,44.15
2018-12-14T14:32:44.445Z,42.25
2018-12-14T14:35:12.515Z,43.40
2018-12-14T14:37:40.578Z,42.35
2018-12-14T14:40:08.642Z,39.13
2018-12-14T14:42:36.694Z,49.33
2018-12-14T14:45:05.473Z,40.38
2018-12-14T14:47:33.630Z,38.08
2018-12-14T14:50:01.684Z,40.40
2018-12-14T14:52:29.891Z,40.48
2018-12-14T14:54:57.987Z,34.98
2018-12-14T14:57:26.135Z,38.30
2018-12-14T14:59:54.195Z,40.40
2018-12-14T15:02:22.294Z,32.95
2018-12-14T15:04:50.349Z,34.23
2018-12-14T15:07:18.468Z,36.48
2018-12-14T15:09:46.541Z,38.85
2018-12-14T15:12:14.715Z,35.85
2018-12-14T15:14:42.887Z,43.20
2018-12-14T15:17:10.910Z,38.17
2018-12-14T15:19:38.981Z,37.40
2018-12-14T15:22:07.048Z,39.10
2018-12-14T15:24:35.151Z,42.50
2018-12-14T15:27:03.223Z,48.25
2018-12-14T15:29:31.374Z,40.83
2018-12-14T15:31:59.670Z,39.78
2018-12-14T15:34:27.759Z,38.60
2018-12-14T15:36:55.856Z,37.13
2018-12-14T15:39:23.972Z,45.05
2018-12-14T15:41:52.052Z,36.23
2018-12-14T15:44:20.214Z,38.17
2018-12-14T15:46:48.367Z,33.90
2018-12-14T15:49:16.496Z,31.68
2018-12-14T15:51:44.535Z,40.55
2018-12-14T15:54:12.640Z,37.23
2018-12-14T15:56:40.731Z,41.40
2018-12-14T15:59:08.873Z,37.55
2018-12-14T16:01:36.932Z,38.23
2018-12-14T16:04:05.043Z,36.63
2018-12-14T16:06:33.055Z,39.40
2018-12-14T16:09:01.238Z,35.60
2018-12-14T16:11:29.290Z,46.25
2018-12-14T16:13:57.544Z,34.40
2018-12-14T16:16:25.680Z,32.78
2018-12-14T16:18:53.856Z,37.85
2018-12-14T16:21:21.937Z,38.88
2018-12-14T16:23:50.918Z,34.00
2018-12-14T16:26:19.087Z,34.00
2018-12-14T16:28:47.177Z,29.52
2018-12-14T16:31:15.243Z,33.90
2018-12-14T16:33:43.500Z,32.73
2018-12-14T16:36:11.559Z,36.03
2018-12-14T16:38:39.756Z,38.13
2018-12-14T16:41:07.815Z,43.30
2018-12-14T16:43:36.011Z,32.58
2018-12-14T16:46:04.081Z,34.95
2018-12-14T16:48:32.227Z,36.03
2018-12-14T16:51:00.287Z,37.08
2018-12-14T16:53:28.490Z,43.13
2018-12-14T16:55:56.600Z,36.98
2018-12-14T16:58:24.628Z,42.70
2018-12-14T17:00:52.715Z,38.48
2018-12-14T17:03:20.771Z,37.75
2018-12-14T17:05:48.946Z,37.90
2018-12-14T17:08:16.999Z,35.55
2018-12-14T17:10:45.177Z,36.20
2018-12-14T17:13:13.174Z,36.73
2018-12-14T17:15:41.275Z,32.78
2018-12-14T17:18:09.323Z,38.13
2018-12-14T17:20:37.474Z,36.77
2018-12-14T17:23:05.523Z,36.13
2018-12-14T17:25:33.619Z,37.05
2018-12-14T17:28:01.666Z,36.70
2018-12-14T17:30:29.872Z,38.33
2018-12-14T17:32:57.901Z,38.80
2018-12-14T17:35:26.031Z,44.18
2018-12-14T17:37:54.059Z,38.35
2018-12-14T17:40:22.158Z,47.23
2018-12-14T17:42:50.251Z,38.35
2018-12-14T17:45:18.343Z,46.33
2018-12-14T17:47:46.370Z,38.92
2018-12-14T17:50:14.478Z,47.85
2018-12-14T17:52:42.519Z,38.23
2018-12-14T17:55:10.681Z,39.88
2018-12-14T17:57:38.823Z,39.70
2018-12-14T18:00:07.082Z,38.70
2018-12-14T18:02:35.107Z,45.65
2018-12-14T18:05:03.286Z,46.18
2018-12-14T18:07:31.433Z,44.90
2018-12-14T18:09:59.480Z,42.78
2018-12-14T18:12:27.610Z,45.30
2018-12-14T18:14:55.768Z,40.70
2018-12-14T18:17:23.835Z,41.68
2018-12-14T18:19:51.922Z,40.17
2018-12-14T18:22:20.095Z,40.25
2018-12-14T18:24:48.498Z,36.20
2018-12-14T18:27:17.392Z,36.95
2018-12-14T18:29:45.551Z,38.00
2018-12-14T18:32:13.598Z,40.38
2018-12-14T18:34:41.658Z,40.35
2018-12-14T18:37:09.755Z,41.70
2018-12-14T18:39:37.846Z,59.67
2018-12-14T18:42:05.932Z,41.45
2018-12-14T18:44:34.153Z,44.98
2018-12-14T18:47:02.195Z,44.83
2018-12-14T18:49:30.379Z,40.25
2018-12-14T18:51:58.398Z,47.08
2018-12-14T18:54:26.485Z,39.58
2018-12-14T18:56:54.562Z,49.05
2018-12-14T18:59:22.905Z,40.12
2018-12-14T19:01:50.895Z,40.95
2018-12-14T19:04:19.011Z,41.28
2018-12-14T19:06:47.013Z,46.63
2018-12-14T19:09:15.103Z,44.15
2018-12-14T19:11:43.149Z,50.17
2018-12-14T19:14:11.289Z,39.83
2018-12-14T19:16:39.442Z,43.52
2018-12-14T19:19:07.535Z,57.23
2018-12-14T19:21:35.592Z,43.08
2018-12-14T19:24:03.722Z,54.65
2018-12-14T19:26:31.882Z,45.03
2018-12-14T19:28:59.968Z,44.83
2018-12-14T19:31:28.215Z,45.92
2018-12-14T19:33:56.443Z,48.02
2018-12-14T19:36:24.525Z,47.30
2018-12-14T19:38:52.575Z,52.08
2018-12-14T19:41:20.787Z,44.88
2018-12-14T19:43:48.825Z,48.30
2018-12-14T19:46:16.907Z,46.92
2018-12-14T19:48:45.059Z,49.42
2018-12-14T19:51:13.162Z,46.90
2018-12-14T19:53:41.202Z,46.10
2018-12-14T19:56:09.396Z,45.20
2018-12-14T19:58:37.524Z,42.45
2018-12-14T20:01:05.678Z,44.55
2018-12-14T20:03:33.772Z,49.85
2018-12-14T20:06:01.865Z,51.53
2018-12-14T20:08:30.078Z,50.75
2018-12-14T20:10:58.198Z,44.58
2018-12-14T20:13:26.203Z,50.05
2018-12-14T20:15:57.606Z,44.05
2018-12-14T20:18:24.486Z,46.15
2018-12-14T20:20:53.372Z,46.02
2018-12-14T20:23:21.471Z,49.88
2018-12-14T20:25:49.563Z,51.28
2018-12-14T20:28:17.648Z,51.00
2018-12-14T20:30:45.750Z,49.15
2018-12-14T20:33:13.815Z,50.60
2018-12-14T20:35:42.031Z,52.35
2018-12-14T20:38:10.183Z,53.98
2018-12-14T20:40:38.363Z,57.55
2018-12-14T20:43:12.922Z,52.33
2018-12-14T20:45:41.002Z,54.42
2018-12-14T20:48:09.079Z,61.68
2018-12-14T20:50:37.169Z,46.30
2018-12-14T20:53:05.242Z,50.73
2018-12-14T20:55:33.379Z,50.17
2018-12-14T20:58:01.617Z,50.73
2018-12-14T21:00:29.714Z,51.48
2018-12-14T21:02:57.784Z,51.60
2018-12-14T21:05:25.945Z,48.38
2018-12-14T21:07:54.023Z,52.35
2018-12-14T21:10:22.170Z,53.42
2018-12-14T21:12:50.203Z,54.13
2018-12-14T21:15:18.294Z,56.85
2018-12-14T21:17:46.399Z,48.95
2018-12-14T21:20:14.446Z,48.38
2018-12-14T21:22:42.503Z,56.35
2018-12-14T21:25:10.743Z,53.28
2018-12-14T21:27:38.815Z,58.68
2018-12-14T21:30:08.403Z,53.52
2018-12-14T21:32:36.556Z,57.95
2018-12-14T21:35:05.138Z,56.25
2018-12-14T21:37:33.288Z,61.63
2018-12-14T21:40:01.398Z,52.25
2018-12-14T21:42:29.559Z,56.70
2018-12-14T21:44:57.642Z,58.92
2018-12-14T21:47:25.782Z,54.00
2018-12-14T21:49:53.902Z,63.45
2018-12-14T21:52:22.045Z,56.42
2018-12-14T21:54:50.199Z,59.50
2018-12-14T21:57:18.266Z,57.17
2018-12-14T21:59:46.445Z,60.52
2018-12-14T22:02:14.591Z,59.65
2018-12-14T22:04:42.717Z,65.55
2018-12-14T22:07:10.790Z,56.75
2018-12-14T22:09:39.010Z,61.53
2018-12-14T22:12:07.066Z,58.73
2018-12-14T22:14:35.312Z,67.55
2018-12-14T22:17:03.399Z,60.38
2018-12-14T22:19:31.474Z,66.37
2018-12-14T22:21:59.589Z,68.72
2018-12-14T22:24:27.640Z,66.12
2018-12-14T22:26:55.722Z,61.42
2018-12-14T22:29:23.817Z,67.42
2018-12-14T22:31:51.857Z,70.92
2018-12-14T22:34:19.978Z,70.65
2018-12-14T22:36:48.059Z,66.22
2018-12-14T22:39:16.198Z,55.40
2018-12-14T22:41:44.871Z,65.17
2018-12-14T22:44:13.015Z,71.50
2018-12-14T22:46:45.624Z,66.00
2018-12-14T22:49:11.154Z,68.37
2018-12-14T22:51:39.358Z,65.05
2018-12-14T22:54:07.449Z,65.08
2018-12-14T22:56:35.547Z,64.35
2018-12-14T22:59:03.698Z,62.23
2018-12-14T23:01:31.875Z,67.72
2018-12-14T23:03:59.990Z,70.50
2018-12-14T23:06:28.110Z,73.90
2018-12-14T23:08:56.310Z,66.95
2018-12-14T23:11:24.415Z,73.30
2018-12-14T23:13:52.552Z,62.73
2018-12-14T23:16:20.664Z,72.45
2018-12-14T23:18:48.798Z,67.97
2018-12-14T23:21:17.013Z,62.17
2018-12-14T23:23:45.160Z,75.28
2018-12-14T23:26:13.228Z,67.50
2018-12-14T23:28:41.390Z,64.27
2018-12-14T23:31:09.492Z,71.92
2018-12-14T23:33:37.726Z,68.85
2018-12-14T23:36:05.828Z,70.35
2018-12-14T23:38:33.900Z,68.07
2018-12-14T23:41:01.999Z,76.12
2018-12-14T23:43:30.081Z,64.90
2018-12-14T23:45:58.228Z,65.80
2018-12-14T23:48:26.274Z,67.53
2018-12-14T23:50:54.378Z,69.97
2018-12-14T23:53:22.358Z,70.75
2018-12-14T23:55:50.457Z,78.07
2018-12-14T23:58:18.491Z,68.30
